Latest Coastal Weather Observations for Flinders Reef

IDQ60701

Issued at 12:32 pm EST Tuesday 26 May 2020 (issued every 10 minutes, with the page automatically refreshed every 10 minutes)

About coastal observations | Map of coastal stations | Coastal observations for QLD | Marine services | Other Formats
Station Details ID: 200783 Name: FLINDERS REEF Lat: -17.72 Lon: 148.45 Height: 2.6 m
Data from the previous 72 hours. | See also: Recent months at Flinders Reef
Date/Time
EST
Wind Sea
Height
m
Swell Vis
km
Cloud Weather Temp
°C
Press
hPa
Rain since
9am
mm
Dir  Spd
kts
Gust
kts
Height
m
Period
s
Dir
26/12:30pm SE 10 13 - - - - - - - 22.7 1018.0 -
26/12:00pm SE 11 15 - - - - - - - 22.6 1018.3 -
26/11:30am SE 12 14 - - - - - - - 22.5 1018.6 -
26/11:00am SE 11 13 - - - - - - - 22.5 1018.8 -
26/10:30am SE 12 15 - - - - - - - 22.4 1019.1 -
26/10:00am ESE 11 15 - - - - - - - 22.4 1019.3 -
26/09:30am SE 12 16 - - - - - - - 22.4 1019.3 -
26/09:00am SE 12 15 - - - - - - - 22.2 1019.2 -
26/08:30am SE 12 15 - - - - - - - 22.5 1019.1 -
26/08:00am SE 12 15 - - - - - - - 22.2 1018.8 -
26/07:30am SSE 13 16 - - - - - - - 22.2 1018.5 -
26/07:00am SE 13 16 - - - - - - - 22.0 1018.2 -
26/06:30am SE 13 18 - - - - - - - 21.9 1017.8 -
26/06:00am SSE 14 17 - - - - - - - 21.7 1017.5 -
26/05:30am SSE 13 17 - - - - - - - 21.9 1017.3 -
26/05:00am SSE 12 15 - - - - - - - 21.8 1017.1 -
26/04:30am SSE 10 12 - - - - - - - 21.9 1016.9 -
26/04:00am SSE 11 15 - - - - - - - 22.0 1016.8 -
26/03:30am SSE 12 14 - - - - - - - 21.8 1016.7 -
26/03:00am SSE 11 13 - - - - - - - 21.8 1016.9 -
26/02:30am SSE 10 13 - - - - - - - 21.8 1017.0 -
26/02:00am SSE 9 12 - - - - - - - 21.9 1017.1 -
26/01:30am S 8 9 - - - - - - - 21.8 1017.3 -
26/01:00am SSE 9 12 - - - - - - - 21.9 1017.5 -
26/12:30am S 8 11 - - - - - - - 21.8 1017.7 -
26/12:00am S 9 13 - - - - - - - 21.8 1017.7 -
 
Date/Time
EST
Wind Sea
Height
m
Swell Vis
km
Cloud Weather Temp
°C
Press
hPa
Rain since
9am
mm
Dir  Spd
kts
Gust
kts
Height
m
Period
s
Dir
25/11:30pm S 9 11 - - - - - - - 21.8 1017.9 -
25/11:00pm SSW 8 10 - - - - - - - 21.8 1018.0 -
25/10:30pm S 7 10 - - - - - - - 21.8 1018.2 -
25/10:00pm SSE 7 9 - - - - - - - 21.9 1018.4 -
25/09:30pm SSW 8 11 - - - - - - - 21.8 1018.4 -
25/09:00pm S 7 12 - - - - - - - 21.8 1018.2 -
25/08:30pm S 7 9 - - - - - - - 21.7 1018.2 -
25/08:00pm SSE 6 8 - - - - - - - 21.8 1017.9 -
25/07:30pm S 7 9 - - - - - - - 21.7 1017.6 -
25/07:00pm S 8 11 - - - - - - - 21.6 1017.2 -
25/06:30pm SSW 7 10 - - - - - - - 21.6 1016.9 -
25/06:00pm S 9 12 - - - - - - - 21.5 1016.5 -
25/05:30pm SSW 8 11 - - - - - - - 21.5 1016.3 -
25/05:00pm S 7 10 - - - - - - - 21.6 1016.0 -
25/04:30pm S 7 9 - - - - - - - 21.5 1015.8 -
25/04:00pm S 10 13 - - - - - - - 21.5 1015.5 -
25/03:30pm SW 8 11 - - - - - - - 21.4 1015.5 -
25/03:00pm SSW 9 11 - - - - - - - 21.2 1015.7 -
25/02:30pm S 10 14 - - - - - - - 21.2 1016.0 -
25/02:00pm SW 9 11 - - - - - - - 21.2 1016.3 -
25/01:30pm SSW 8 11 - - - - - - - 21.3 1016.5 -
25/01:00pm SSW 8 11 - - - - - - - 21.1 1016.9 -
25/12:30pm SSW 6 9 - - - - - - - 21.2 1017.2 -
25/12:00pm S 5 8 - - - - - - - 21.1 1017.4 -
25/11:30am S 9 11 - - - - - - - 21.0 1017.7 -
25/11:00am S 9 14 - - - - - - - 21.0 1018.2 -
25/10:30am SSW 11 13 - - - - - - - 21.0 1018.6 -
25/10:00am S 11 14 - - - - - - - 21.0 1018.7 -
25/09:30am S 12 17 - - - - - - - 21.1 1018.6 -
25/09:00am S 13 17 - - - - - - - 21.1 1018.2 -
25/08:30am SSW 15 18 - - - - - - - 21.1 1017.9 -
25/08:00am S 15 17 - - - - - - - 21.2 1017.5 -
25/07:30am S 15 19 - - - - - - - 21.1 1017.3 -
25/07:00am S 13 18 - - - - - - - 21.1 1016.7 -
25/06:30am S 13 17 - - - - - - - 21.2 1016.6 -
25/06:00am S 14 21 - - - - - - - 21.3 1016.3 -
25/05:30am S 14 19 - - - - - - - 21.1 1015.9 -
25/05:00am SSW 14 17 - - - - - - - 21.2 1015.8 -
25/04:30am S 15 19 - - - - - - - 21.2 1015.4 -
25/04:00am SSW 16 20 - - - - - - - 21.2 1015.6 -
25/03:30am S 15 20 - - - - - - - 21.4 1015.3 -
25/03:00am S 12 17 - - - - - - - 21.5 1015.5 -
25/02:30am S 12 15 - - - - - - - 21.7 1015.2 -
25/02:00am S 14 17 - - - - - - - 21.6 1015.4 -
25/01:30am S 13 17 - - - - - - - 21.6 1015.9 -
25/01:00am S 12 16 - - - - - - - 21.6 1016.0 -
25/12:30am S 12 17 - - - - - - - 21.6 1016.1 -
25/12:00am S 13 18 - - - - - - - 21.5 1016.2 -
 
Date/Time
EST
Wind Sea
Height
m
Swell Vis
km
Cloud Weather Temp
°C
Press
hPa
Rain since
9am
mm
Dir  Spd
kts
Gust
kts
Height
m
Period
s
Dir
24/11:30pm S 12 16 - - - - - - - 21.6 1016.5 -
24/11:00pm S 13 17 - - - - - - - 21.3 1016.7 -
24/10:30pm S 14 18 - - - - - - - 21.4 1016.8 -
24/10:00pm SSW 16 19 - - - - - - - 21.3 1016.5 -
24/09:30pm SSW 15 19 - - - - - - - 21.3 1016.4 -
24/09:00pm S 16 19 - - - - - - - 21.0 1016.5 -
24/08:30pm S 16 22 - - - - - - - 21.0 1016.1 -
24/08:00pm S 13 15 - - - - - - - 20.9 1016.1 -
24/07:30pm S 14 18 - - - - - - - 20.9 1015.9 -
24/07:00pm S 13 18 - - - - - - - 21.0 1015.5 -
24/06:30pm S 14 19 - - - - - - - 20.8 1015.2 -
24/06:00pm S 13 16 - - - - - - - 20.9 1015.5 -
24/05:30pm S 14 18 - - - - - - - 20.7 1015.1 -
24/05:00pm S 15 19 - - - - - - - 20.8 1014.6 -
24/04:30pm S 16 20 - - - - - - - 20.8 1014.2 -
24/04:00pm S 18 22 - - - - - - - 20.5 1013.7 -
24/03:30pm S 18 23 - - - - - - - 20.5 1013.4 -
24/03:00pm S 18 23 - - - - - - - 20.4 1013.7 -
24/02:30pm S 18 24 - - - - - - - 20.6 1013.1 -
24/02:00pm S 18 23 - - - - - - - 20.2 1013.1 -
24/01:30pm S 19 23 - - - - - - - 20.7 1013.8 -
24/01:00pm SSW 19 23 - - - - - - - 20.3 1014.0 -
24/12:30pm SSW 18 22 - - - - - - - 20.6 1014.7 -
24/12:00pm S 18 25 - - - - - - - 20.3 1015.3 -
24/11:30am SSW 18 23 - - - - - - - 20.4 1015.7 -
24/11:00am SSW 19 24 - - - - - - - 20.2 1016.1 -
24/10:30am SSW 21 25 - - - - - - - 20.4 1016.1 -
24/10:00am SSW 21 27 - - - - - - - 20.3 1015.8 -
24/09:30am SSW 22 27 - - - - - - - 20.6 1016.4 -
24/09:00am SSW 23 27 - - - - - - - 20.3 1015.7 -
24/08:30am SSW 21 25 - - - - - - - 20.5 1015.7 -
24/08:00am SSW 23 27 - - - - - - - 20.2 1015.1 -
24/07:30am SSW 22 27 - - - - - - - 20.0 1015.1 -
24/07:00am SSW 22 27 - - - - - - - 20.3 1014.3 -
24/06:30am SSW 24 29 - - - - - - - 20.3 1014.7 -
24/06:00am SSW 22 27 - - - - - - - 20.2 1014.1 -
24/05:30am SSW 21 28 - - - - - - - 20.3 1012.9 -
24/05:00am SSW 21 26 - - - - - - - 20.2 1013.5 -
24/04:30am SW 23 27 - - - - - - - 19.5 1013.7 -
24/04:00am SSW 22 27 - - - - - - - 19.5 1012.9 -
24/03:30am SW 23 27 - - - - - - - 19.3 1012.9 -
24/03:00am SSW 24 27 - - - - - - - 18.4 1013.1 -
24/02:30am SW 23 28 - - - - - - - 18.3 1013.2 -
24/02:00am SW 23 28 - - - - - - - 19.1 1012.8 -
24/01:30am SSW 25 30 - - - - - - - 18.8 1013.3 -
24/01:00am SSW 21 24 - - - - - - - 19.8 1013.3 -
24/12:30am SSW 19 22 - - - - - - - 20.0 1013.6 -
24/12:00am SSW 23 27 - - - - - - - 20.2 1013.4 -
 
Date/Time
EST
Wind Sea
Height
m
Swell Vis
km
Cloud Weather Temp
°C
Press
hPa
Rain since
9am
mm
Dir  Spd
kts
Gust
kts
Height
m
Period
s
Dir
23/11:30pm S 12 21 - - - - - - - 20.4 1014.0 -
23/11:00pm SSW 10 16 - - - - - - - 19.5 1014.5 -
23/10:30pm S 8 11 - - - - - - - 21.0 1014.0 -
23/10:00pm S 10 13 - - - - - - - 21.3 1014.2 -
23/09:30pm SSE 10 12 - - - - - - - 21.1 1014.1 -
23/09:00pm SSE 12 16 - - - - - - - 21.0 1014.3 -
23/08:30pm SE 9 11 - - - - - - - 20.7 1014.4 -
23/08:00pm SSE 14 17 - - - - - - - 20.3 1014.3 -
23/07:30pm S 13 16 - - - - - - - 21.0 1014.1 -
23/07:00pm S 16 18 - - - - - - - 20.3 1013.8 -
23/06:30pm S 17 20 - - - - - - - 21.3 1013.7 -
23/06:00pm S 18 22 - - - - - - - 21.6 1012.6 -
23/05:30pm S 18 21 - - - - - - - 21.4 1012.6 -
23/05:00pm S 20 23 - - - - - - - 21.1 1012.4 -
23/04:30pm S 22 27 - - - - - - - 21.5 1012.3 -
23/04:00pm S 24 28 - - - - - - - 20.7 1011.8 -
23/03:30pm S 23 27 - - - - - - - 20.8 1011.7 -
23/03:00pm S 20 23 - - - - - - - 20.5 1011.9 -
23/02:30pm S 18 22 - - - - - - - 21.1 1011.9 -
23/02:00pm S 15 18 - - - - - - - 20.9 1012.4 -
23/01:30pm SSW 18 21 - - - - - - - 20.9 1012.7 -
23/01:00pm SSW 23 26 - - - - - - - 21.0 1012.7 -

Other formats

Comma delimited format used in spreadsheet applications
http://www.bom.gov.au/fwo/IDQ60701/IDQ60701.94290.axf

JavaScript Object Notation format (JSON) in row-major order
http://www.bom.gov.au/fwo/IDQ60701/IDQ60701.94290.json

Data quality

Most of these data are generated automatically and are frequently updated. Quality checks on data are not normally performed. It is possible for incorrect values to appear. Refer to information at About Latest Weather Observations and please check the disclaimer before using these data.